Terminal Aerodrome Forecast
Issued by NWS

Home | Current Version | Previous Version | Text Only | Print | Product List | Glossary On
Versions: 1 2 3 4 5 6 7 8 9 10 11 12 13 14 15 16 17
000
FTUS45 KPIH 192300
TAFSUN
TAF
KSUN 192337Z 2000/2024 27006KT P6SM FEW050 SCT130
     FM200300 32008KT P6SM BKN100
     FM201700 15010KT P6SM FEW180
      AMD LTD TO CLD VIS AND WIND 2005/2013=

USA.gov is the U.S. government's official web portal to all federal, state and local government web resources and services.